sensor_id;sensor_type;location;lat;lon;timestamp;temperature;humidity
28773;DHT22;15925;51.222;5.678;2023-07-31T00:00:36;17.20;99.90
28773;DHT22;15925;51.222;5.678;2023-07-31T00:03:02;17.10;99.90
28773;DHT22;15925;51.222;5.678;2023-07-31T00:05:28;17.20;99.90
28773;DHT22;15925;51.222;5.678;2023-07-31T00:07:53;17.20;99.90
28773;DHT22;15925;51.222;5.678;2023-07-31T00:10:20;17.20;99.90
28773;DHT22;15925;51.222;5.678;2023-07-31T00:12:46;17.20;99.90
28773;DHT22;15925;51.222;5.678;2023-07-31T00:15:13;17.10;99.90
28773;DHT22;15925;51.222;5.678;2023-07-31T00:17:39;17.10;99.90
28773;DHT22;15925;51.222;5.678;2023-07-31T00:20:05;17.20;99.90
28773;DHT22;15925;51.222;5.678;2023-07-31T00:22:32;17.20;99.90
28773;DHT22;15925;51.222;5.678;2023-07-31T00:24:57;17.20;99.90
28773;DHT22;15925;51.222;5.678;2023-07-31T00:27:23;17.20;99.90
28773;DHT22;15925;51.222;5.678;2023-07-31T00:29:50;17.20;99.90
28773;DHT22;15925;51.222;5.678;2023-07-31T00:32:15;17.10;99.90
28773;DHT22;15925;51.222;5.678;2023-07-31T00:34:41;17.10;99.90
28773;DHT22;15925;51.222;5.678;2023-07-31T00:37:07;17.10;99.90
28773;DHT22;15925;51.222;5.678;2023-07-31T00:39:34;17.10;99.90
28773;DHT22;15925;51.222;5.678;2023-07-31T00:42:00;17.20;99.90
28773;DHT22;15925;51.222;5.678;2023-07-31T00:44:26;17.10;99.90
28773;DHT22;15925;51.222;5.678;2023-07-31T00:46:53;17.20;99.90
28773;DHT22;15925;51.222;5.678;2023-07-31T00:49:20;17.20;99.90
28773;DHT22;15925;51.222;5.678;2023-07-31T00:51:46;17.10;99.90
28773;DHT22;15925;51.222;5.678;2023-07-31T00:54:12;17.10;99.90
28773;DHT22;15925;51.222;5.678;2023-07-31T00:56:39;17.20;99.90
28773;DHT22;15925;51.222;5.678;2023-07-31T00:59:06;17.10;99.90
28773;DHT22;15925;51.222;5.678;2023-07-31T01:01:32;17.20;99.90
28773;DHT22;15925;51.222;5.678;2023-07-31T01:03:58;17.00;99.90
28773;DHT22;15925;51.222;5.678;2023-07-31T01:06:40;17.00;99.90
28773;DHT22;15925;51.222;5.678;2023-07-31T01:09:34;17.00;99.90
28773;DHT22;15925;51.222;5.678;2023-07-31T01:12:03;17.10;99.90
28773;DHT22;15925;51.222;5.678;2023-07-31T01:14:30;17.10;99.90
28773;DHT22;15925;51.222;5.678;2023-07-31T01:16:55;17.10;99.90
28773;DHT22;15925;51.222;5.678;2023-07-31T01:19:23;17.00;99.90
28773;DHT22;15925;51.222;5.678;2023-07-31T01:24:28;17.00;99.90
28773;DHT22;15925;51.222;5.678;2023-07-31T01:27:06;17.00;99.90
28773;DHT22;15925;51.222;5.678;2023-07-31T01:29:49;17.00;99.90
28773;DHT22;15925;51.222;5.678;2023-07-31T01:32:18;17.10;99.90
28773;DHT22;15925;51.222;5.678;2023-07-31T01:34:45;17.10;99.90
28773;DHT22;15925;51.222;5.678;2023-07-31T01:37:12;17.10;99.90
28773;DHT22;15925;51.222;5.678;2023-07-31T01:39:37;17.00;99.90
28773;DHT22;15925;51.222;5.678;2023-07-31T01:42:03;17.10;99.90
28773;DHT22;15925;51.222;5.678;2023-07-31T01:44:29;17.00;99.90
28773;DHT22;15925;51.222;5.678;2023-07-31T01:46:55;17.10;99.90
28773;DHT22;15925;51.222;5.678;2023-07-31T01:49:21;17.10;99.90
28773;DHT22;15925;51.222;5.678;2023-07-31T01:51:47;17.10;99.90
28773;DHT22;15925;51.222;5.678;2023-07-31T01:54:12;17.00;99.90
28773;DHT22;15925;51.222;5.678;2023-07-31T01:56:38;17.00;99.90
28773;DHT22;15925;51.222;5.678;2023-07-31T01:59:04;17.00;99.90
28773;DHT22;15925;51.222;5.678;2023-07-31T02:01:30;17.00;99.90
28773;DHT22;15925;51.222;5.678;2023-07-31T02:03:55;17.10;99.90
28773;DHT22;15925;51.222;5.678;2023-07-31T02:06:22;17.10;99.90
28773;DHT22;15925;51.222;5.678;2023-07-31T02:08:48;17.20;99.90
28773;DHT22;15925;51.222;5.678;2023-07-31T02:11:15;17.10;99.90
28773;DHT22;15925;51.222;5.678;2023-07-31T02:13:40;17.10;99.90
28773;DHT22;15925;51.222;5.678;2023-07-31T02:16:06;17.00;99.90
28773;DHT22;15925;51.222;5.678;2023-07-31T02:18:32;17.10;99.90
28773;DHT22;15925;51.222;5.678;2023-07-31T02:20:58;17.10;99.90
28773;DHT22;15925;51.222;5.678;2023-07-31T02:23:25;17.10;99.90
28773;DHT22;15925;51.222;5.678;2023-07-31T02:25:51;17.10;99.90
28773;DHT22;15925;51.222;5.678;2023-07-31T02:28:17;17.20;99.90
28773;DHT22;15925;51.222;5.678;2023-07-31T02:30:46;17.20;99.90
28773;DHT22;15925;51.222;5.678;2023-07-31T02:33:11;17.20;99.90
28773;DHT22;15925;51.222;5.678;2023-07-31T02:35:37;17.20;99.90
28773;DHT22;15925;51.222;5.678;2023-07-31T02:38:03;17.20;99.90
28773;DHT22;15925;51.222;5.678;2023-07-31T02:40:29;17.20;99.90
28773;DHT22;15925;51.222;5.678;2023-07-31T02:42:54;17.20;99.90
28773;DHT22;15925;51.222;5.678;2023-07-31T02:45:20;17.20;99.90
28773;DHT22;15925;51.222;5.678;2023-07-31T02:47:46;17.20;99.90
28773;DHT22;15925;51.222;5.678;2023-07-31T02:50:12;17.20;99.90
28773;DHT22;15925;51.222;5.678;2023-07-31T02:52:38;17.20;99.90
28773;DHT22;15925;51.222;5.678;2023-07-31T02:55:04;17.30;99.90
28773;DHT22;15925;51.222;5.678;2023-07-31T02:57:30;17.40;99.90
28773;DHT22;15925;51.222;5.678;2023-07-31T02:59:56;17.30;99.90
28773;DHT22;15925;51.222;5.678;2023-07-31T03:02:21;17.30;99.90
28773;DHT22;15925;51.222;5.678;2023-07-31T03:04:48;17.30;99.90
28773;DHT22;15925;51.222;5.678;2023-07-31T03:07:14;17.30;99.90
28773;DHT22;15925;51.222;5.678;2023-07-31T03:09:40;17.40;99.90
28773;DHT22;15925;51.222;5.678;2023-07-31T03:12:06;17.40;99.90
28773;DHT22;15925;51.222;5.678;2023-07-31T03:14:32;17.40;99.90
28773;DHT22;15925;51.222;5.678;2023-07-31T03:16:58;17.40;99.90
28773;DHT22;15925;51.222;5.678;2023-07-31T03:19:24;17.40;99.90
28773;DHT22;15925;51.222;5.678;2023-07-31T03:21:50;17.30;99.90
28773;DHT22;15925;51.222;5.678;2023-07-31T03:24:16;17.30;99.90
28773;DHT22;15925;51.222;5.678;2023-07-31T03:26:42;17.30;99.90
28773;DHT22;15925;51.222;5.678;2023-07-31T03:29:08;17.30;99.90
28773;DHT22;15925;51.222;5.678;2023-07-31T03:31:34;17.30;99.90
28773;DHT22;15925;51.222;5.678;2023-07-31T03:34:00;17.40;99.90
28773;DHT22;15925;51.222;5.678;2023-07-31T03:36:26;17.40;99.90
28773;DHT22;15925;51.222;5.678;2023-07-31T03:38:53;17.40;99.90
28773;DHT22;15925;51.222;5.678;2023-07-31T03:41:18;17.40;99.90
28773;DHT22;15925;51.222;5.678;2023-07-31T03:43:49;17.50;99.90
28773;DHT22;15925;51.222;5.678;2023-07-31T03:46:14;17.50;99.90
28773;DHT22;15925;51.222;5.678;2023-07-31T03:48:40;17.50;99.90
28773;DHT22;15925;51.222;5.678;2023-07-31T03:51:06;17.50;99.90
28773;DHT22;15925;51.222;5.678;2023-07-31T03:53:32;17.50;99.90
28773;DHT22;15925;51.222;5.678;2023-07-31T03:55:57;17.60;99.90
28773;DHT22;15925;51.222;5.678;2023-07-31T03:58:23;17.60;99.90
28773;DHT22;15925;51.222;5.678;2023-07-31T04:00:49;17.60;99.90
28773;DHT22;15925;51.222;5.678;2023-07-31T04:03:15;17.60;99.90
28773;DHT22;15925;51.222;5.678;2023-07-31T04:05:41;17.60;99.90
28773;DHT22;15925;51.222;5.678;2023-07-31T04:08:06;17.60;99.90
28773;DHT22;15925;51.222;5.678;2023-07-31T04:10:32;17.70;99.90
28773;DHT22;15925;51.222;5.678;2023-07-31T04:12:59;17.70;99.90
28773;DHT22;15925;51.222;5.678;2023-07-31T04:15:26;17.70;99.90
28773;DHT22;15925;51.222;5.678;2023-07-31T04:17:52;17.60;99.90
28773;DHT22;15925;51.222;5.678;2023-07-31T04:20:17;17.60;99.90
28773;DHT22;15925;51.222;5.678;2023-07-31T04:22:43;17.70;99.90
28773;DHT22;15925;51.222;5.678;2023-07-31T04:25:09;17.70;99.90
28773;DHT22;15925;51.222;5.678;2023-07-31T04:27:35;17.60;99.90
28773;DHT22;15925;51.222;5.678;2023-07-31T04:30:00;17.70;99.90
28773;DHT22;15925;51.222;5.678;2023-07-31T04:32:26;17.70;99.90
28773;DHT22;15925;51.222;5.678;2023-07-31T04:34:52;17.70;99.90
28773;DHT22;15925;51.222;5.678;2023-07-31T04:37:18;17.70;99.90
28773;DHT22;15925;51.222;5.678;2023-07-31T04:39:44;17.70;99.90
28773;DHT22;15925;51.222;5.678;2023-07-31T04:42:10;17.70;99.90
28773;DHT22;15925;51.222;5.678;2023-07-31T04:44:35;17.70;99.90
28773;DHT22;15925;51.222;5.678;2023-07-31T04:47:01;17.70;99.90
28773;DHT22;15925;51.222;5.678;2023-07-31T04:49:28;17.70;99.90
28773;DHT22;15925;51.222;5.678;2023-07-31T04:51:53;17.70;99.90
28773;DHT22;15925;51.222;5.678;2023-07-31T04:54:19;17.70;99.90
28773;DHT22;15925;51.222;5.678;2023-07-31T04:56:45;17.70;99.90
28773;DHT22;15925;51.222;5.678;2023-07-31T04:59:11;17.70;99.90
28773;DHT22;15925;51.222;5.678;2023-07-31T05:01:36;17.70;99.90
28773;DHT22;15925;51.222;5.678;2023-07-31T05:04:03;17.70;99.90
28773;DHT22;15925;51.222;5.678;2023-07-31T05:06:28;17.70;99.90
28773;DHT22;15925;51.222;5.678;2023-07-31T05:08:54;17.70;99.90
28773;DHT22;15925;51.222;5.678;2023-07-31T05:11:20;17.70;99.90
28773;DHT22;15925;51.222;5.678;2023-07-31T05:13:45;17.70;99.90
28773;DHT22;15925;51.222;5.678;2023-07-31T05:16:11;17.70;99.90
28773;DHT22;15925;51.222;5.678;2023-07-31T05:21:03;17.70;99.90
28773;DHT22;15925;51.222;5.678;2023-07-31T05:23:29;17.70;99.90
28773;DHT22;15925;51.222;5.678;2023-07-31T05:26:03;17.70;99.90
28773;DHT22;15925;51.222;5.678;2023-07-31T05:28:29;17.80;99.90
28773;DHT22;15925;51.222;5.678;2023-07-31T05:31:00;17.80;99.90
28773;DHT22;15925;51.222;5.678;2023-07-31T05:33:26;17.80;99.90
28773;DHT22;15925;51.222;5.678;2023-07-31T05:35:52;17.80;99.90
28773;DHT22;15925;51.222;5.678;2023-07-31T05:38:17;17.70;99.90
28773;DHT22;15925;51.222;5.678;2023-07-31T05:40:43;17.70;99.90
28773;DHT22;15925;51.222;5.678;2023-07-31T05:43:09;17.60;99.90
28773;DHT22;15925;51.222;5.678;2023-07-31T05:45:36;17.70;99.90
28773;DHT22;15925;51.222;5.678;2023-07-31T05:48:02;17.60;99.90
28773;DHT22;15925;51.222;5.678;2023-07-31T05:50:29;17.60;99.90
28773;DHT22;15925;51.222;5.678;2023-07-31T05:52:55;17.60;99.90
28773;DHT22;15925;51.222;5.678;2023-07-31T05:55:21;17.70;99.90
28773;DHT22;15925;51.222;5.678;2023-07-31T05:57:47;17.70;99.90
28773;DHT22;15925;51.222;5.678;2023-07-31T06:00:13;17.60;99.90
28773;DHT22;15925;51.222;5.678;2023-07-31T06:02:39;17.50;99.90
28773;DHT22;15925;51.222;5.678;2023-07-31T06:05:05;17.60;99.90
28773;DHT22;15925;51.222;5.678;2023-07-31T06:07:32;17.60;99.90
28773;DHT22;15925;51.222;5.678;2023-07-31T06:09:57;17.60;99.90
28773;DHT22;15925;51.222;5.678;2023-07-31T06:12:28;17.60;99.90
28773;DHT22;15925;51.222;5.678;2023-07-31T06:14:54;17.60;99.90
28773;DHT22;15925;51.222;5.678;2023-07-31T06:17:20;17.60;99.90
28773;DHT22;15925;51.222;5.678;2023-07-31T06:19:47;17.70;99.90
28773;DHT22;15925;51.222;5.678;2023-07-31T06:22:12;17.70;99.90
28773;DHT22;15925;51.222;5.678;2023-07-31T06:24:39;17.70;99.90
28773;DHT22;15925;51.222;5.678;2023-07-31T06:27:05;17.60;99.90
28773;DHT22;15925;51.222;5.678;2023-07-31T06:29:31;17.60;99.90
28773;DHT22;15925;51.222;5.678;2023-07-31T06:31:58;17.60;99.90
28773;DHT22;15925;51.222;5.678;2023-07-31T06:34:23;17.60;99.90
28773;DHT22;15925;51.222;5.678;2023-07-31T06:36:49;17.60;99.90
28773;DHT22;15925;51.222;5.678;2023-07-31T06:39:15;17.60;99.90
28773;DHT22;15925;51.222;5.678;2023-07-31T06:41:42;17.60;99.90
28773;DHT22;15925;51.222;5.678;2023-07-31T06:44:10;17.70;99.90
28773;DHT22;15925;51.222;5.678;2023-07-31T06:46:36;17.60;99.90
28773;DHT22;15925;51.222;5.678;2023-07-31T06:49:02;17.60;99.90
28773;DHT22;15925;51.222;5.678;2023-07-31T06:51:28;17.60;99.90
28773;DHT22;15925;51.222;5.678;2023-07-31T06:53:54;17.60;99.90
28773;DHT22;15925;51.222;5.678;2023-07-31T06:56:21;17.60;99.90
28773;DHT22;15925;51.222;5.678;2023-07-31T06:58:47;17.60;99.90
28773;DHT22;15925;51.222;5.678;2023-07-31T07:01:13;17.50;99.90
28773;DHT22;15925;51.222;5.678;2023-07-31T07:03:38;17.60;99.90
28773;DHT22;15925;51.222;5.678;2023-07-31T07:06:04;17.60;99.90
28773;DHT22;15925;51.222;5.678;2023-07-31T07:08:30;17.60;99.90
28773;DHT22;15925;51.222;5.678;2023-07-31T07:10:56;17.50;99.90
28773;DHT22;15925;51.222;5.678;2023-07-31T07:13:22;17.50;99.90
28773;DHT22;15925;51.222;5.678;2023-07-31T07:15:48;17.50;99.90
28773;DHT22;15925;51.222;5.678;2023-07-31T07:18:14;17.50;99.90
28773;DHT22;15925;51.222;5.678;2023-07-31T07:20:45;17.40;99.90
28773;DHT22;15925;51.222;5.678;2023-07-31T07:23:11;17.50;99.90
28773;DHT22;15925;51.222;5.678;2023-07-31T07:25:38;17.50;99.90
28773;DHT22;15925;51.222;5.678;2023-07-31T07:28:04;17.50;99.90
28773;DHT22;15925;51.222;5.678;2023-07-31T07:30:30;17.50;99.90
28773;DHT22;15925;51.222;5.678;2023-07-31T07:32:55;17.40;99.90
28773;DHT22;15925;51.222;5.678;2023-07-31T07:35:21;17.50;99.90
28773;DHT22;15925;51.222;5.678;2023-07-31T07:37:48;17.50;99.90
28773;DHT22;15925;51.222;5.678;2023-07-31T07:40:15;17.50;99.90
28773;DHT22;15925;51.222;5.678;2023-07-31T07:42:41;17.50;99.90
28773;DHT22;15925;51.222;5.678;2023-07-31T07:45:08;17.50;99.90
28773;DHT22;15925;51.222;5.678;2023-07-31T07:47:34;17.50;99.90
28773;DHT22;15925;51.222;5.678;2023-07-31T07:50:00;17.50;99.90
28773;DHT22;15925;51.222;5.678;2023-07-31T07:52:26;17.60;99.90
28773;DHT22;15925;51.222;5.678;2023-07-31T07:54:51;17.50;99.90
28773;DHT22;15925;51.222;5.678;2023-07-31T07:57:17;17.60;99.90
28773;DHT22;15925;51.222;5.678;2023-07-31T07:59:44;17.50;99.90
28773;DHT22;15925;51.222;5.678;2023-07-31T08:02:10;17.60;99.90
28773;DHT22;15925;51.222;5.678;2023-07-31T08:04:36;17.60;99.90
28773;DHT22;15925;51.222;5.678;2023-07-31T08:07:01;17.50;99.90
28773;DHT22;15925;51.222;5.678;2023-07-31T08:09:27;17.50;99.90
28773;DHT22;15925;51.222;5.678;2023-07-31T08:11:53;17.60;99.90
28773;DHT22;15925;51.222;5.678;2023-07-31T08:14:20;17.60;99.90
28773;DHT22;15925;51.222;5.678;2023-07-31T08:16:45;17.60;99.90
28773;DHT22;15925;51.222;5.678;2023-07-31T08:19:11;17.60;99.90
28773;DHT22;15925;51.222;5.678;2023-07-31T08:21:37;17.60;99.90
28773;DHT22;15925;51.222;5.678;2023-07-31T08:24:03;17.60;99.90
28773;DHT22;15925;51.222;5.678;2023-07-31T08:26:29;17.60;99.90
28773;DHT22;15925;51.222;5.678;2023-07-31T08:28:54;17.60;99.90
28773;DHT22;15925;51.222;5.678;2023-07-31T08:31:20;17.60;99.90
28773;DHT22;15925;51.222;5.678;2023-07-31T08:33:46;17.60;99.90
28773;DHT22;15925;51.222;5.678;2023-07-31T08:36:12;17.60;99.90
28773;DHT22;15925;51.222;5.678;2023-07-31T08:38:37;17.60;99.90
28773;DHT22;15925;51.222;5.678;2023-07-31T08:41:04;17.60;99.90
28773;DHT22;15925;51.222;5.678;2023-07-31T08:43:30;17.60;99.90
28773;DHT22;15925;51.222;5.678;2023-07-31T08:45:56;17.60;99.90
28773;DHT22;15925;51.222;5.678;2023-07-31T08:48:23;17.60;99.90
28773;DHT22;15925;51.222;5.678;2023-07-31T08:50:51;17.60;99.90
28773;DHT22;15925;51.222;5.678;2023-07-31T08:53:17;17.60;99.90
28773;DHT22;15925;51.222;5.678;2023-07-31T08:55:43;17.60;99.90
28773;DHT22;15925;51.222;5.678;2023-07-31T08:58:10;17.60;99.90
28773;DHT22;15925;51.222;5.678;2023-07-31T09:00:38;17.60;99.90
28773;DHT22;15925;51.222;5.678;2023-07-31T09:03:17;17.70;99.90
28773;DHT22;15925;51.222;5.678;2023-07-31T09:05:45;17.70;99.90
28773;DHT22;15925;51.222;5.678;2023-07-31T09:08:12;17.70;99.90
28773;DHT22;15925;51.222;5.678;2023-07-31T09:10:45;17.70;99.90
28773;DHT22;15925;51.222;5.678;2023-07-31T09:13:15;17.70;99.90
28773;DHT22;15925;51.222;5.678;2023-07-31T09:15:44;17.70;99.90
28773;DHT22;15925;51.222;5.678;2023-07-31T09:18:11;17.80;99.90
28773;DHT22;15925;51.222;5.678;2023-07-31T09:20:37;17.90;99.90
28773;DHT22;15925;51.222;5.678;2023-07-31T09:23:11;17.90;99.90
28773;DHT22;15925;51.222;5.678;2023-07-31T09:25:37;17.90;99.90
28773;DHT22;15925;51.222;5.678;2023-07-31T09:28:06;17.90;99.90
28773;DHT22;15925;51.222;5.678;2023-07-31T09:30:45;18.00;99.90
28773;DHT22;15925;51.222;5.678;2023-07-31T09:33:11;18.00;99.90
28773;DHT22;15925;51.222;5.678;2023-07-31T09:35:37;18.00;99.90
28773;DHT22;15925;51.222;5.678;2023-07-31T09:38:10;18.10;99.90
28773;DHT22;15925;51.222;5.678;2023-07-31T09:40:39;18.10;99.90
28773;DHT22;15925;51.222;5.678;2023-07-31T09:43:10;18.10;99.90
28773;DHT22;15925;51.222;5.678;2023-07-31T09:45:38;18.10;99.90
28773;DHT22;15925;51.222;5.678;2023-07-31T09:48:08;18.10;99.90
28773;DHT22;15925;51.222;5.678;2023-07-31T09:50:40;18.20;99.90
28773;DHT22;15925;51.222;5.678;2023-07-31T09:53:07;18.20;99.90
28773;DHT22;15925;51.222;5.678;2023-07-31T09:55:34;18.20;99.90
28773;DHT22;15925;51.222;5.678;2023-07-31T09:58:03;18.20;99.90
28773;DHT22;15925;51.222;5.678;2023-07-31T10:00:30;18.20;99.90
28773;DHT22;15925;51.222;5.678;2023-07-31T10:02:59;18.20;99.90
28773;DHT22;15925;51.222;5.678;2023-07-31T10:05:33;18.20;99.90
28773;DHT22;15925;51.222;5.678;2023-07-31T10:08:00;18.20;99.90
28773;DHT22;15925;51.222;5.678;2023-07-31T10:10:26;18.20;99.90
28773;DHT22;15925;51.222;5.678;2023-07-31T10:12:54;18.20;99.90
28773;DHT22;15925;51.222;5.678;2023-07-31T10:15:21;18.20;99.90
28773;DHT22;15925;51.222;5.678;2023-07-31T10:17:48;18.20;99.90
28773;DHT22;15925;51.222;5.678;2023-07-31T10:20:15;18.20;99.90
28773;DHT22;15925;51.222;5.678;2023-07-31T10:22:42;18.30;99.90
28773;DHT22;15925;51.222;5.678;2023-07-31T10:25:09;18.20;99.90
28773;DHT22;15925;51.222;5.678;2023-07-31T10:27:36;18.20;99.90
28773;DHT22;15925;51.222;5.678;2023-07-31T10:30:04;18.20;99.90
28773;DHT22;15925;51.222;5.678;2023-07-31T10:32:31;18.20;99.90
28773;DHT22;15925;51.222;5.678;2023-07-31T10:34:58;18.30;99.90
28773;DHT22;15925;51.222;5.678;2023-07-31T10:37:37;18.30;99.90
28773;DHT22;15925;51.222;5.678;2023-07-31T10:42:50;18.40;99.90
28773;DHT22;15925;51.222;5.678;2023-07-31T10:45:34;18.40;99.90
28773;DHT22;15925;51.222;5.678;2023-07-31T10:48:16;18.30;99.90
28773;DHT22;15925;51.222;5.678;2023-07-31T10:50:48;18.40;99.90
28773;DHT22;15925;51.222;5.678;2023-07-31T10:53:32;18.40;99.90
28773;DHT22;15925;51.222;5.678;2023-07-31T10:56:04;18.40;99.90
28773;DHT22;15925;51.222;5.678;2023-07-31T10:58:31;18.40;99.90
28773;DHT22;15925;51.222;5.678;2023-07-31T11:01:04;18.50;99.90
28773;DHT22;15925;51.222;5.678;2023-07-31T11:03:47;18.50;99.90
28773;DHT22;15925;51.222;5.678;2023-07-31T11:06:17;18.40;99.90
28773;DHT22;15925;51.222;5.678;2023-07-31T11:08:48;18.50;99.90
28773;DHT22;15925;51.222;5.678;2023-07-31T11:11:16;18.50;99.90
28773;DHT22;15925;51.222;5.678;2023-07-31T11:13:50;18.60;99.90
28773;DHT22;15925;51.222;5.678;2023-07-31T11:16:17;18.60;99.90
28773;DHT22;15925;51.222;5.678;2023-07-31T11:18:46;18.60;99.90
28773;DHT22;15925;51.222;5.678;2023-07-31T11:21:17;18.60;99.90
28773;DHT22;15925;51.222;5.678;2023-07-31T11:23:51;18.70;99.90
28773;DHT22;15925;51.222;5.678;2023-07-31T11:26:18;18.60;99.90
28773;DHT22;15925;51.222;5.678;2023-07-31T11:28:47;18.70;99.90
28773;DHT22;15925;51.222;5.678;2023-07-31T11:31:13;18.70;99.90
28773;DHT22;15925;51.222;5.678;2023-07-31T11:33:39;18.70;99.90
28773;DHT22;15925;51.222;5.678;2023-07-31T11:36:05;18.80;99.90
28773;DHT22;15925;51.222;5.678;2023-07-31T11:38:33;18.80;99.90
28773;DHT22;15925;51.222;5.678;2023-07-31T11:41:01;18.80;99.90
28773;DHT22;15925;51.222;5.678;2023-07-31T11:43:29;18.80;99.90
28773;DHT22;15925;51.222;5.678;2023-07-31T11:45:58;18.80;99.90
28773;DHT22;15925;51.222;5.678;2023-07-31T11:48:29;18.80;99.90
28773;DHT22;15925;51.222;5.678;2023-07-31T11:50:59;18.80;99.90
28773;DHT22;15925;51.222;5.678;2023-07-31T11:53:30;18.80;99.90
28773;DHT22;15925;51.222;5.678;2023-07-31T11:55:59;18.80;99.90
28773;DHT22;15925;51.222;5.678;2023-07-31T11:58:25;18.90;99.90
28773;DHT22;15925;51.222;5.678;2023-07-31T12:00:52;19.00;99.90
28773;DHT22;15925;51.222;5.678;2023-07-31T12:03:18;19.10;99.90
28773;DHT22;15925;51.222;5.678;2023-07-31T12:05:44;19.10;99.90
28773;DHT22;15925;51.222;5.678;2023-07-31T12:08:12;19.10;99.90
28773;DHT22;15925;51.222;5.678;2023-07-31T12:10:38;19.10;99.90
28773;DHT22;15925;51.222;5.678;2023-07-31T12:13:20;19.10;99.90
28773;DHT22;15925;51.222;5.678;2023-07-31T12:15:46;19.20;99.90
28773;DHT22;15925;51.222;5.678;2023-07-31T12:18:19;19.20;99.90
28773;DHT22;15925;51.222;5.678;2023-07-31T12:20:46;19.20;99.90
28773;DHT22;15925;51.222;5.678;2023-07-31T12:23:17;19.20;99.90
28773;DHT22;15925;51.222;5.678;2023-07-31T12:25:43;19.30;99.90
28773;DHT22;15925;51.222;5.678;2023-07-31T12:28:09;19.30;99.90
28773;DHT22;15925;51.222;5.678;2023-07-31T12:30:40;19.30;99.90
28773;DHT22;15925;51.222;5.678;2023-07-31T12:33:13;19.30;99.90
28773;DHT22;15925;51.222;5.678;2023-07-31T12:35:43;19.30;99.90
28773;DHT22;15925;51.222;5.678;2023-07-31T12:38:09;19.40;99.90
28773;DHT22;15925;51.222;5.678;2023-07-31T12:40:40;19.40;99.90
28773;DHT22;15925;51.222;5.678;2023-07-31T12:43:07;19.40;99.90
28773;DHT22;15925;51.222;5.678;2023-07-31T12:45:33;19.50;99.90
28773;DHT22;15925;51.222;5.678;2023-07-31T12:47:59;19.50;99.90
28773;DHT22;15925;51.222;5.678;2023-07-31T12:50:26;19.50;99.90
28773;DHT22;15925;51.222;5.678;2023-07-31T12:52:53;19.60;99.90
28773;DHT22;15925;51.222;5.678;2023-07-31T12:55:20;19.70;99.90
28773;DHT22;15925;51.222;5.678;2023-07-31T12:57:46;19.60;99.90
28773;DHT22;15925;51.222;5.678;2023-07-31T13:00:12;19.70;99.90
28773;DHT22;15925;51.222;5.678;2023-07-31T13:02:39;19.70;99.90
28773;DHT22;15925;51.222;5.678;2023-07-31T13:05:05;19.70;99.90
28773;DHT22;15925;51.222;5.678;2023-07-31T13:07:31;19.70;99.90
28773;DHT22;15925;51.222;5.678;2023-07-31T13:09:57;19.70;99.90
28773;DHT22;15925;51.222;5.678;2023-07-31T13:12:23;19.70;99.90
28773;DHT22;15925;51.222;5.678;2023-07-31T13:14:49;19.80;99.90
28773;DHT22;15925;51.222;5.678;2023-07-31T13:17:15;19.80;99.90
28773;DHT22;15925;51.222;5.678;2023-07-31T13:19:42;19.80;99.90
28773;DHT22;15925;51.222;5.678;2023-07-31T13:22:08;19.80;99.90
28773;DHT22;15925;51.222;5.678;2023-07-31T13:24:33;19.80;99.90
28773;DHT22;15925;51.222;5.678;2023-07-31T13:27:01;19.90;99.90
28773;DHT22;15925;51.222;5.678;2023-07-31T13:29:26;19.90;99.90
28773;DHT22;15925;51.222;5.678;2023-07-31T13:31:52;19.90;99.90
28773;DHT22;15925;51.222;5.678;2023-07-31T13:34:18;19.90;99.90
28773;DHT22;15925;51.222;5.678;2023-07-31T13:36:44;19.90;99.90
28773;DHT22;15925;51.222;5.678;2023-07-31T13:39:11;19.90;99.90
28773;DHT22;15925;51.222;5.678;2023-07-31T13:41:37;19.90;99.90
28773;DHT22;15925;51.222;5.678;2023-07-31T13:44:03;19.80;99.90
28773;DHT22;15925;51.222;5.678;2023-07-31T13:46:29;19.90;99.90
28773;DHT22;15925;51.222;5.678;2023-07-31T13:48:55;19.90;99.90
28773;DHT22;15925;51.222;5.678;2023-07-31T13:51:21;19.80;99.90
28773;DHT22;15925;51.222;5.678;2023-07-31T13:53:47;19.80;99.90
28773;DHT22;15925;51.222;5.678;2023-07-31T13:56:13;19.80;99.90
28773;DHT22;15925;51.222;5.678;2023-07-31T13:58:39;19.70;99.90
28773;DHT22;15925;51.222;5.678;2023-07-31T14:01:05;19.70;99.90
28773;DHT22;15925;51.222;5.678;2023-07-31T14:03:31;19.70;99.90
28773;DHT22;15925;51.222;5.678;2023-07-31T14:05:58;19.70;99.90
28773;DHT22;15925;51.222;5.678;2023-07-31T14:08:24;19.80;99.90
28773;DHT22;15925;51.222;5.678;2023-07-31T14:10:50;19.80;99.90
28773;DHT22;15925;51.222;5.678;2023-07-31T14:13:16;19.80;99.90
28773;DHT22;15925;51.222;5.678;2023-07-31T14:15:42;19.80;99.90
28773;DHT22;15925;51.222;5.678;2023-07-31T14:18:09;19.80;99.90
28773;DHT22;15925;51.222;5.678;2023-07-31T14:20:35;19.90;99.90
28773;DHT22;15925;51.222;5.678;2023-07-31T14:23:01;19.90;99.90
28773;DHT22;15925;51.222;5.678;2023-07-31T14:25:27;19.80;99.90
28773;DHT22;15925;51.222;5.678;2023-07-31T14:27:53;19.80;99.90
28773;DHT22;15925;51.222;5.678;2023-07-31T14:30:19;19.70;99.90
28773;DHT22;15925;51.222;5.678;2023-07-31T14:32:46;19.80;99.90
28773;DHT22;15925;51.222;5.678;2023-07-31T14:35:12;19.80;99.90
28773;DHT22;15925;51.222;5.678;2023-07-31T14:37:40;19.80;99.90
28773;DHT22;15925;51.222;5.678;2023-07-31T14:40:08;19.70;99.90
28773;DHT22;15925;51.222;5.678;2023-07-31T14:42:35;19.70;99.90
28773;DHT22;15925;51.222;5.678;2023-07-31T14:45:02;19.80;99.90
28773;DHT22;15925;51.222;5.678;2023-07-31T14:47:27;19.70;99.90
28773;DHT22;15925;51.222;5.678;2023-07-31T14:49:53;19.60;99.90
28773;DHT22;15925;51.222;5.678;2023-07-31T14:52:19;19.60;99.90
28773;DHT22;15925;51.222;5.678;2023-07-31T14:54:45;19.70;99.90
28773;DHT22;15925;51.222;5.678;2023-07-31T14:57:11;19.60;99.90
28773;DHT22;15925;51.222;5.678;2023-07-31T14:59:36;19.70;99.90
28773;DHT22;15925;51.222;5.678;2023-07-31T15:02:02;19.60;99.90
28773;DHT22;15925;51.222;5.678;2023-07-31T15:04:29;19.50;99.90
28773;DHT22;15925;51.222;5.678;2023-07-31T15:06:55;19.50;99.90
28773;DHT22;15925;51.222;5.678;2023-07-31T15:09:21;19.50;99.90
28773;DHT22;15925;51.222;5.678;2023-07-31T15:11:47;19.60;99.90
28773;DHT22;15925;51.222;5.678;2023-07-31T15:14:13;19.60;99.90
28773;DHT22;15925;51.222;5.678;2023-07-31T15:16:38;19.60;99.90
28773;DHT22;15925;51.222;5.678;2023-07-31T15:19:04;19.50;99.90
28773;DHT22;15925;51.222;5.678;2023-07-31T15:21:30;19.50;99.90
28773;DHT22;15925;51.222;5.678;2023-07-31T15:23:56;19.50;99.90
28773;DHT22;15925;51.222;5.678;2023-07-31T15:26:22;19.40;99.90
28773;DHT22;15925;51.222;5.678;2023-07-31T15:28:50;19.40;99.90
28773;DHT22;15925;51.222;5.678;2023-07-31T15:31:20;19.40;99.90
28773;DHT22;15925;51.222;5.678;2023-07-31T15:33:48;19.40;99.90
28773;DHT22;15925;51.222;5.678;2023-07-31T15:36:13;19.40;99.90